Πλησιέστερες Αναφορές METAR

 

LGTS - Thessaloniki/Makedonia-Elev 7m
Απόσταση από σταθμό: Ν 13km
Ενημερώθηκε: 20/01/2021 11:50
Αίθριος
Αίθριος
 Ανεμοι από Δ
Ανεμος: Δ 9 km/h
Θερμοκρασία: 5°C
Δείκτης Ψύχρας: 3°C
Σημείο Δρόσου: 0°C
Υγρασία: 70%
Βαρόμετρο: 1028 hPa
Περίληψη: Αίθριος
Ορατότητα: πάνω από 10 km
2021/01/20 09:50 LGTS 200950Z 28005KT CAVOK 05/00 Q1028 NOSIG
LGAV - Athens/Elef. Venizelos-Elev 94m
Απόσταση από σταθμό: ΝΝΑ 312km
Ενημερώθηκε: 20/01/2021 11:50
Αίθριος
Αίθριος
 Ανεμοι από ΝΔ
Ανεμος: ΝΔ 11 km/h
Θερμοκρασία: 11°C
Σημείο Δρόσου: -2°C
Υγρασία: 41%
Βαρόμετρο: 1028 hPa
Περίληψη: Αίθριος
Ορατότητα: πάνω από 10 km
2021/01/20 09:50 LGAV 200950Z 23006KT 200V260 CAVOK 11/M02 Q1028 NOSIG
 
LGAL - Alexandroupolis-Elev 3m
Απόσταση από σταθμό: Α 251km
Ενημερώθηκε: 20/01/2021 11:50
Διάσπαρτα Νέφη
Διάσπαρτα Νέφη
 Ανεμοι από ΝΔ
Ανεμος: ΝΔ 17 km/h
Θερμοκρασία: 8°C
Δείκτης Ψύχρας: 5°C
Σημείο Δρόσου: -1°C
Υγρασία: 53%
Βαρόμετρο: 1026 hPa
Νέφωση: Διάσπαρτα Νέφη
Ορατότητα: 10 km
Λεπτομέρειες Νεφών: Διάσπαρτα Νέφη 914 m
2021/01/20 09:50 LGAL 200950Z 23009KT 9999 FEW030 08/M01 Q1026
LGKV - Kavala/Crysoupolis-Elev 5m
Απόσταση από σταθμό: ΑΒΑ 144km
Ενημερώθηκε: 20/01/2021 11:50
Αίθριος
Αίθριος
 Ανεμοι από ΝΝΔ
Ανεμος: ΝΝΔ 9 km/h
Θερμοκρασία: 7°C
Δείκτης Ψύχρας: 6°C
Σημείο Δρόσου: -4°C
Υγρασία: 46%
Βαρόμετρο: 1026 hPa
Περίληψη: Αίθριος
Ορατότητα: πάνω από 10 km
2021/01/20 09:50 LGKV 200950Z 20005KT CAVOK 07/M04 Q1026
 
LGSK - Skiathos Island-Elev 15m
Απόσταση από σταθμό: ΝΝΑ 168km
Ενημερώθηκε: 20/01/2021 11:50
Αίθριος
Αίθριος
 Ανεμοι από ΝΝΔ
Ανεμος: ΝΝΔ 15 km/h
Θερμοκρασία: 10°C
Δείκτης Ψύχρας: 8°C
Σημείο Δρόσου: 0°C
Υγρασία: 50%
Βαρόμετρο: 1027 hPa
Περίληψη: Αίθριος
Ορατότητα: πάνω από 10 km
2021/01/20 09:50 LGSK 200950Z 21008KT CAVOK 10/00 Q1027
LGLM - Limnos Island-Elev 5m
Απόσταση από σταθμό: ΑΝΑ 210km
Ενημερώθηκε: 20/01/2021 11:50
Διάσπαρτα Νέφη
Διάσπαρτα Νέφη
 Ανεμοι από άπνοια
Ανεμος: άπνοια
Θερμοκρασία: 11°C
Σημείο Δρόσου: 0°C
Υγρασία: 47%
Βαρόμετρο: 1026 hPa
Νέφωση: Διάσπαρτα Νέφη
Ορατότητα: 10 km
Λεπτομέρειες Νεφών: Διάσπαρτα Νέφη 762 m
2021/01/20 09:50 LGLM 200950Z 00000KT 9999 FEW025 11/M00 Q1026
 
LGMT - Mitilini Island-Elev 17m
Απόσταση από σταθμό: ΑΝΑ 358km
Ενημερώθηκε: 20/01/2021 11:50
Διάσπαρτα Νέφη
Διάσπαρτα Νέφη
 Ανεμοι από ΝΝΑ
Ανεμος: ΝΝΑ 15 km/h
Θερμοκρασία: 8°C
Δείκτης Ψύχρας: 5°C
Σημείο Δρόσου: -1°C
Υγρασία: 53%
Βαρόμετρο: 1028 hPa
Νέφωση: Διάσπαρτα Νέφη
Ορατότητα: 10 km
Λεπτομέρειες Νεφών: Διάσπαρτα Νέφη 762 m
2021/01/20 09:50 LGMT 200950Z 15008KT 9999 FEW025 08/M01 Q1028
LGSY - Skiros Island-Elev 15m
Απόσταση από σταθμό: ΝΑ 227km
Ενημερώθηκε: 20/01/2021 11:50
Διάσπαρτα Νέφη
Διάσπαρτα Νέφη
 Ανεμοι από ΝΝΔ
Ανεμος: ΝΝΔ 13 km/h
Θερμοκρασία: 11°C
Σημείο Δρόσου: 5°C
Υγρασία: 67%
Βαρόμετρο: 1027 hPa
Νέφωση: Διάσπαρτα Νέφη
Ορατότητα: 10 km
Λεπτομέρειες Νεφών: Διάσπαρτα Νέφη 762 m
2021/01/20 09:50 LGSY 200950Z 20007KT 9999 FEW025 11/05 Q1027 BLU
 
LGKZ - Kozani-Elev 628m
Απόσταση από σταθμό: ΔΝΔ 102km
Ενημερώθηκε: 20/01/2021 11:50
Διάσπαρτα Νέφη
Διάσπαρτα Νέφη
 Ανεμοι από άπνοια
Ανεμος: άπνοια
Θερμοκρασία: 4°C
Σημείο Δρόσου: -7°C
Υγρασία: 45%
Βαρόμετρο: 1026 hPa
Νέφωση: Διάσπαρτα Νέφη
Ορατότητα: 10 km
Λεπτομέρειες Νεφών: Διάσπαρτα Νέφη 2134 m
2021/01/20 09:50 LGKZ 200950Z 00000KT 9999 FEW070 04/M07 Q1026
LGIO - Ioannina-Elev 476m
Απόσταση από σταθμό: ΔΝΔ 209km
Ενημερώθηκε: 20/01/2021 11:50
Σχεδόν νεφελώδης
Σχεδόν νεφελώδης
 Ανεμοι από μεταβλητός
Ανεμος: μεταβλητός 4 km/h
Θερμοκρασία: 2°C
Σημείο Δρόσου: -4°C
Υγρασία: 65%
Βαρόμετρο: 1029 hPa
Νέφωση: Σχεδόν νεφελώδης
Ορατότητα: 10 km
Λεπτομέρειες Νεφών: Σχεδόν νεφελώδης 1067 m
2021/01/20 09:50 LGIO 200950Z VRB02KT 9999 BKN035 02/M04 Q1029
 
LGZA - Zakinthos-Elev 3m
Απόσταση από σταθμό: ΝΝΔ 367km
Ενημερώθηκε: 20/01/2021 11:50
Σχεδόν νεφελώδης
Σχεδόν νεφελώδης
 Ανεμοι από άπνοια
Ανεμος: άπνοια
Θερμοκρασία: 12°C
Σημείο Δρόσου: 6°C
Υγρασία: 67%
Βαρόμετρο: 1030 hPa
Νέφωση: Σχεδόν νεφελώδης
Ορατότητα: 10 km
Λεπτομέρειες Νεφών: Μερικώς νεφελώδης 610 m
Σχεδόν νεφελώδης 2134 m
2021/01/20 09:50 LGZA 200950Z 00000KT 9999 SCT020 BKN070 12/06 Q1030
LGKR - Corfu Island-Elev 2m
Απόσταση από σταθμό: ΔΝΔ 282km
Ενημερώθηκε: 20/01/2021 11:50
Σχεδόν νεφελώδης
Σχεδόν νεφελώδης
 Ανεμοι από ΝΑ
Ανεμος: ΝΑ 9 km/h
Θερμοκρασία: 11°C
Σημείο Δρόσου: 3°C
Υγρασία: 58%
Βαρόμετρο: 1030 hPa
Νέφωση: Σχεδόν νεφελώδης
Ορατότητα: 10 km
Λεπτομέρειες Νεφών: Μερικώς νεφελώδης 1219 m
Σχεδόν νεφελώδης 2438 m
2021/01/20 09:50 LGKR 200950Z 13005KT 9999 SCT040 BKN080 11/03 Q1030 NOSIG
 
LGSO - Syros Island-Elev 72m
Απόσταση από σταθμό: ΝΝΑ 397km
Ενημερώθηκε: 20/01/2021 11:50
Διάσπαρτα Νέφη
Διάσπαρτα Νέφη
 Ανεμοι από ΔΒΔ
Ανεμος: ΔΒΔ 13 km/h
Θερμοκρασία: 11°C
Σημείο Δρόσου: -2°C
Υγρασία: 41%
Βαρόμετρο: 1028 hPa
Νέφωση: Διάσπαρτα Νέφη
Ορατότητα: 10 km
Λεπτομέρειες Νεφών: Διάσπαρτα Νέφη 549 m
2021/01/20 09:50 LGSO 200950Z 29007KT 9999 FEW018 11/M02 Q1028
LGMK - Mikonos Island-Elev 123m
Απόσταση από σταθμό: ΝΝΑ 412km
Ενημερώθηκε: 20/01/2021 11:50
Διάσπαρτα Νέφη
Διάσπαρτα Νέφη
 Ανεμοι από άπνοια
Ανεμος: άπνοια
Θερμοκρασία: 10°C
Σημείο Δρόσου: 0°C
Υγρασία: 50%
Βαρόμετρο: 1028 hPa
Νέφωση: Διάσπαρτα Νέφη
Ορατότητα: 10 km
Λεπτομέρειες Νεφών: Διάσπαρτα Νέφη 305 m
2021/01/20 09:50 LGMK 200950Z 00000KT 9999 FEW010 10/00 Q1028
 
LGSR - Santorini Island-Elev 40m
Απόσταση από σταθμό: ΝΝΑ 520km
Ενημερώθηκε: 20/01/2021 11:50
Μερικώς νεφελώδης
Μερικώς νεφελώδης
 Ανεμοι από Β
Ανεμος: Β 13 km/h
Θερμοκρασία: 11°C
Σημείο Δρόσου: 2°C
Υγρασία: 54%
Βαρόμετρο: 1029 hPa
Νέφωση: Μερικώς νεφελώδης
Ορατότητα: 10 km
Λεπτομέρειες Νεφών: Μερικώς νεφελώδης 762 m
2021/01/20 09:50 LGSR 200950Z 36007KT 9999 SCT025 11/02 Q1029
LGKL - Kalamata-Elev 8m
Απόσταση από σταθμό: Ν 405km
Ενημερώθηκε: 20/01/2021 11:50
Διάσπαρτα Νέφη
Διάσπαρτα Νέφη
 Ανεμοι από ΒΒΑ
Ανεμος: ΒΒΑ 7 km/h
Θερμοκρασία: 13°C
Σημείο Δρόσου: 1°C
Υγρασία: 44%
Βαρόμετρο: 1029 hPa
Νέφωση: Διάσπαρτα Νέφη
Ορατότητα: 10 km
Λεπτομέρειες Νεφών: Διάσπαρτα Νέφη 914 m
2021/01/20 09:50 LGKL 200950Z 02004KT 9999 FEW030 13/01 Q1029
 
LGIR - Iraklion/Crete-Elev 5m
Απόσταση από σταθμό: ΝΝΑ 622km
Ενημερώθηκε: 20/01/2021 11:50
Διάσπαρτα Νέφη
Διάσπαρτα Νέφη
 Ανεμοι από ΒΔ
Ανεμος: ΒΔ 11 km/h
Θερμοκρασία: 12°C
Σημείο Δρόσου: 4°C
Υγρασία: 58%
Βαρόμετρο: 1029 hPa
Νέφωση: Διάσπαρτα Νέφη
Ορατότητα: 10 km
Λεπτομέρειες Νεφών: Διάσπαρτα Νέφη 762 m
2021/01/20 09:50 LGIR 200950Z 31006KT 9999 FEW025 12/04 Q1029 NOSIG
LGRP - Rhodes-Elev 5m
Απόσταση από σταθμό: ΝΑ 649km
Ενημερώθηκε: 20/01/2021 11:50
Αίθριος
Αίθριος
 Ανεμοι από Δ
Ανεμος: Δ 20 km/h
Θερμοκρασία: 10°C
Δείκτης Ψύχρας: 7°C
Σημείο Δρόσου: -4°C
Υγρασία: 37%
Βαρόμετρο: 1026 hPa
Περίληψη: Αίθριος
Ορατότητα: πάνω από 10 km
2021/01/20 09:50 LGRP 200950Z 27011KT CAVOK 10/M04 Q1026 NOSIG
 
LWOH - Ohrid/FYROM-Elev 761m
Απόσταση από σταθμό: ΔΒΔ 188km
Ενημερώθηκε: 20/01/2021 12:00
Διάσπαρτα Νέφη
Διάσπαρτα Νέφη
 Ανεμοι από ΝΝΑ
Ανεμος: ΝΝΑ 20 km/h
Θερμοκρασία: 5°C
Δείκτης Ψύχρας: 1°C
Σημείο Δρόσου: -2°C
Υγρασία: 61%
Βαρόμετρο: 1026 hPa
Νέφωση: Διάσπαρτα Νέφη
Ορατότητα: 10 km
Λεπτομέρειες Νεφών: Διάσπαρτα Νέφη 1219 m
2021/01/20 10:00 LWOH 201000Z 16011KT 9999 FEW040 05/M02 Q1026
LBSF - Sofia/Bulgaria-Elev 595m
Απόσταση από σταθμό: Β 227km
Ενημερώθηκε: 20/01/2021 12:00
Αίθριος
Αίθριος
 Ανεμοι από ΒΑ
Ανεμος: ΒΑ 6 km/h
Θερμοκρασία: 0°C
Σημείο Δρόσου: -6°C
Υγρασία: 64%
Βαρόμετρο: 1024 hPa
Περίληψη: Αίθριος
Ορατότητα: πάνω από 10 km
2021/01/20 10:00 LBSF 201000Z 04003KT 360V070 CAVOK 00/M06 Q1024 NOSIG